createdAt,value
2023-04-03T00:00:43.752Z,64.75
2023-04-03T00:03:22.526Z,64.41
2023-04-03T00:05:54.850Z,64.32
2023-04-03T00:08:27.277Z,64.65
2023-04-03T00:10:59.493Z,64.63
2023-04-03T00:13:31.889Z,64.66
2023-04-03T00:16:04.806Z,64.24
2023-04-03T00:18:37.365Z,64.28
2023-04-03T00:21:11.898Z,64.62
2023-04-03T00:23:44.213Z,64.55
2023-04-03T00:26:16.395Z,64.49
2023-04-03T00:28:48.672Z,64.30
2023-04-03T00:31:20.997Z,64.50
2023-04-03T00:33:53.220Z,64.23
2023-04-03T00:36:25.676Z,64.41
2023-04-03T00:38:57.953Z,64.25
2023-04-03T00:41:30.173Z,64.50
2023-04-03T00:44:02.452Z,64.21
2023-04-03T00:46:34.807Z,64.28
2023-04-03T00:49:07.074Z,63.87
2023-04-03T00:51:39.376Z,63.74
2023-04-03T00:54:11.990Z,64.13
2023-04-03T00:56:45.353Z,64.01
2023-04-03T00:59:24.187Z,64.07
2023-04-03T01:01:58.120Z,64.49
2023-04-03T01:04:35.920Z,64.55
2023-04-03T01:07:12.586Z,64.36
2023-04-03T01:09:46.793Z,64.59
2023-04-03T01:12:21.646Z,64.67
2023-04-03T01:14:55.745Z,64.32
2023-04-03T01:17:36.532Z,64.68
2023-04-03T01:20:47.329Z,64.53
2023-04-03T01:23:36.403Z,64.24
2023-04-03T01:26:10.114Z,64.30
2023-04-03T01:28:42.609Z,64.40
2023-04-03T01:31:22.419Z,64.37
2023-04-03T01:33:55.486Z,64.50
2023-04-03T01:36:31.122Z,64.15
2023-04-03T01:39:03.610Z,64.06
2023-04-03T01:41:35.913Z,64.06
2023-04-03T01:44:15.822Z,64.14
2023-04-03T01:46:48.611Z,64.36
2023-04-03T01:49:20.958Z,64.18
2023-04-03T01:51:53.292Z,64.23
2023-04-03T01:54:25.564Z,64.24
2023-04-03T01:56:57.904Z,64.33
2023-04-03T01:59:30.442Z,64.04
2023-04-03T02:02:02.761Z,63.86
2023-04-03T02:04:35.090Z,63.97
2023-04-03T02:07:07.362Z,64.05
2023-04-03T02:09:39.559Z,64.27
2023-04-03T02:12:12.012Z,64.24
2023-04-03T02:14:44.396Z,64.17
2023-04-03T02:17:17.619Z,64.17
2023-04-03T02:19:49.931Z,64.21
2023-04-03T02:22:22.407Z,64.44
2023-04-03T02:24:54.602Z,64.38
2023-04-03T02:27:26.971Z,64.19
2023-04-03T02:29:59.359Z,64.21
2023-04-03T02:32:31.849Z,64.39
2023-04-03T02:35:04.329Z,64.06
2023-04-03T02:37:37.889Z,64.16
2023-04-03T02:40:13.043Z,64.26
2023-04-03T02:42:45.286Z,64.05
2023-04-03T02:45:18.011Z,64.12
2023-04-03T02:47:50.347Z,64.10
2023-04-03T02:50:22.652Z,64.14
2023-04-03T02:52:54.879Z,63.74
2023-04-03T02:55:27.454Z,63.85
2023-04-03T02:58:00.553Z,63.91
2023-04-03T03:00:33.218Z,63.70
2023-04-03T03:03:05.994Z,64.04
2023-04-03T03:05:38.551Z,63.90
2023-04-03T03:08:11.833Z,64.02
2023-04-03T03:10:44.099Z,64.20
2023-04-03T03:13:16.633Z,64.16
2023-04-03T03:15:48.985Z,64.22
2023-04-03T03:18:21.394Z,64.18
2023-04-03T03:20:57.007Z,64.08
2023-04-03T03:23:31.685Z,64.21
2023-04-03T03:26:06.370Z,64.10
2023-04-03T03:28:41.512Z,64.12
2023-04-03T03:31:14.606Z,64.15
2023-04-03T03:33:46.966Z,64.18
2023-04-03T03:36:19.203Z,64.08
2023-04-03T03:38:51.438Z,64.14
2023-04-03T03:41:23.948Z,63.90
2023-04-03T03:43:56.419Z,64.02
2023-04-03T03:46:29.406Z,64.17
2023-04-03T03:49:01.770Z,63.99
2023-04-03T03:51:34.008Z,64.15
2023-04-03T03:54:06.432Z,63.94
2023-04-03T03:56:38.839Z,63.86
2023-04-03T03:59:13.348Z,63.94
2023-04-03T04:01:46.044Z,63.77
2023-04-03T04:04:18.464Z,63.66
2023-04-03T04:06:51.644Z,64.06
2023-04-03T04:09:24.320Z,64.05
2023-04-03T04:11:56.676Z,63.91
2023-04-03T04:14:28.904Z,63.96
2023-04-03T04:17:03.515Z,64.16
2023-04-03T04:19:36.322Z,64.26
2023-04-03T04:22:08.630Z,64.15
2023-04-03T04:24:41.380Z,64.14
2023-04-03T04:27:13.877Z,64.31
2023-04-03T04:29:46.218Z,64.30
2023-04-03T04:32:18.587Z,64.21
2023-04-03T04:34:51.209Z,64.19
2023-04-03T04:37:23.606Z,64.03
2023-04-03T04:39:56.038Z,64.10
2023-04-03T04:42:28.619Z,64.21
2023-04-03T04:45:00.873Z,64.06
2023-04-03T04:47:33.539Z,64.13
2023-04-03T04:50:06.621Z,64.06
2023-04-03T04:52:39.361Z,64.07
2023-04-03T04:55:12.324Z,64.00
2023-04-03T04:57:44.642Z,64.09
2023-04-03T05:00:19.884Z,63.97
2023-04-03T05:02:52.552Z,64.08
2023-04-03T05:05:25.185Z,63.98
2023-04-03T05:07:57.909Z,64.00
2023-04-03T05:10:30.859Z,64.01
2023-04-03T05:13:03.058Z,64.18
2023-04-03T05:15:35.559Z,64.33
2023-04-03T05:18:09.253Z,64.30
2023-04-03T05:20:41.786Z,64.26
2023-04-03T05:23:14.609Z,64.42
2023-04-03T05:25:48.092Z,64.27
2023-04-03T05:28:20.606Z,64.11
2023-04-03T05:30:57.897Z,64.27
2023-04-03T05:33:31.432Z,64.43
2023-04-03T05:36:08.526Z,63.94
2023-04-03T05:38:44.032Z,64.27
2023-04-03T05:41:16.911Z,64.15
2023-04-03T05:43:50.621Z,63.92
2023-04-03T05:46:23.427Z,64.14
2023-04-03T05:48:58.480Z,64.11
2023-04-03T05:51:36.545Z,63.95
2023-04-03T05:54:19.997Z,64.24
2023-04-03T05:56:53.277Z,64.24
2023-04-03T05:59:26.231Z,64.16
2023-04-03T06:01:59.144Z,64.10
2023-04-03T06:04:31.690Z,64.21
2023-04-03T06:07:04.663Z,64.16
2023-04-03T06:09:37.416Z,63.95
2023-04-03T06:12:10.879Z,64.05
2023-04-03T06:14:43.357Z,63.83
2023-04-03T06:17:16.415Z,63.85
2023-04-03T06:19:49.372Z,63.79
2023-04-03T06:22:22.368Z,64.01
2023-04-03T06:24:54.569Z,63.82
2023-04-03T06:27:26.800Z,63.86
2023-04-03T06:29:59.021Z,63.78
2023-04-03T06:32:31.356Z,63.71
2023-04-03T06:35:04.253Z,63.93
2023-04-03T06:37:36.584Z,63.88
2023-04-03T06:40:17.770Z,63.89
2023-04-03T06:42:50.350Z,63.80
2023-04-03T06:45:23.629Z,63.61
2023-04-03T06:47:56.725Z,63.61
2023-04-03T06:50:29.194Z,63.66
2023-04-03T06:53:02.053Z,63.59
2023-04-03T06:55:34.334Z,63.57
2023-04-03T06:58:06.665Z,63.66
2023-04-03T07:00:39.282Z,63.59
2023-04-03T07:03:11.775Z,63.37
2023-04-03T07:05:45.925Z,63.45
2023-04-03T07:08:18.176Z,63.29
2023-04-03T07:10:51.334Z,63.23
2023-04-03T07:13:23.568Z,63.31
2023-04-03T07:15:56.032Z,63.34
2023-04-03T07:18:28.567Z,62.32
2023-04-03T07:21:01.458Z,62.73
2023-04-03T07:23:33.898Z,62.77
2023-04-03T07:26:06.738Z,62.84
2023-04-03T07:28:41.269Z,62.96
2023-04-03T07:31:16.119Z,62.77
2023-04-03T07:33:47.313Z,63.16
2023-04-03T07:36:23.220Z,62.78
2023-04-03T07:38:55.565Z,62.53
2023-04-03T07:41:27.926Z,62.44
2023-04-03T07:44:00.230Z,62.54
2023-04-03T07:46:32.574Z,62.60
2023-04-03T07:49:04.865Z,62.48
2023-04-03T07:51:37.011Z,62.67
2023-04-03T07:54:09.375Z,62.48
2023-04-03T07:56:41.763Z,62.23
2023-04-03T07:59:14.006Z,62.49
2023-04-03T08:01:46.258Z,62.47
2023-04-03T08:04:18.535Z,62.34
2023-04-03T08:06:50.804Z,62.31
2023-04-03T08:09:23.262Z,62.25
2023-04-03T08:11:55.501Z,62.42
2023-04-03T08:14:27.713Z,62.16
2023-04-03T08:17:00.076Z,62.25
2023-04-03T08:19:32.492Z,61.68
2023-04-03T08:22:06.114Z,61.58
2023-04-03T08:24:39.373Z,61.66
2023-04-03T08:27:15.511Z,61.87
2023-04-03T08:29:48.618Z,61.57
2023-04-03T08:32:21.183Z,60.99
2023-04-03T08:34:53.740Z,61.14
2023-04-03T08:37:26.557Z,61.44
2023-04-03T08:39:58.919Z,61.11
2023-04-03T08:42:44.162Z,60.88
2023-04-03T08:45:19.653Z,60.72
2023-04-03T08:47:58.570Z,60.13
2023-04-03T08:50:38.227Z,60.38
2023-04-03T08:53:16.893Z,60.58
2023-04-03T08:55:51.294Z,60.43
2023-04-03T08:58:25.453Z,59.28
2023-04-03T09:01:02.000Z,60.23
2023-04-03T09:03:36.526Z,60.22
2023-04-03T09:06:16.230Z,60.25
2023-04-03T09:08:57.807Z,59.19
2023-04-03T09:11:38.692Z,59.49
2023-04-03T09:14:23.688Z,59.53
2023-04-03T09:16:59.146Z,59.11
2023-04-03T09:19:44.140Z,59.07
2023-04-03T09:22:22.764Z,58.74
2023-04-03T09:25:01.126Z,59.16
2023-04-03T09:27:33.474Z,58.68
2023-04-03T09:30:08.112Z,58.90
2023-04-03T09:32:40.297Z,57.91
2023-04-03T09:35:27.379Z,58.13
2023-04-03T09:38:23.657Z,58.03
2023-04-03T09:41:08.835Z,57.73
2023-04-03T09:43:53.625Z,57.17
2023-04-03T09:46:35.079Z,57.66
2023-04-03T09:49:13.100Z,57.03
2023-04-03T09:51:46.362Z,57.23
2023-04-03T09:54:44.319Z,57.34
2023-04-03T09:57:17.426Z,57.42
2023-04-03T10:00:00.720Z,57.52
2023-04-03T10:02:38.270Z,57.47
2023-04-03T10:05:34.372Z,58.25
2023-04-03T10:08:24.627Z,57.87
2023-04-03T10:11:18.289Z,58.17
2023-04-03T10:14:00.648Z,56.71
2023-04-03T10:16:43.264Z,57.71
2023-04-03T10:19:32.250Z,57.78
2023-04-03T10:22:15.616Z,58.04
2023-04-03T10:24:55.928Z,56.61
2023-04-03T10:27:39.539Z,55.68
2023-04-03T10:30:30.994Z,57.11
2023-04-03T10:33:16.948Z,54.45
2023-04-03T10:36:02.406Z,56.00
2023-04-03T10:38:45.513Z,56.77
2023-04-03T10:41:26.288Z,55.36
2023-04-03T10:44:07.582Z,56.03
2023-04-03T10:46:44.382Z,56.44
2023-04-03T10:49:38.007Z,55.45
2023-04-03T10:52:19.289Z,56.41
2023-04-03T10:55:00.281Z,56.18
2023-04-03T10:57:33.051Z,55.29
2023-04-03T11:00:10.590Z,54.61
2023-04-03T11:02:50.626Z,54.85
2023-04-03T11:05:33.681Z,55.52
2023-04-03T11:08:13.686Z,55.91
2023-04-03T11:10:47.791Z,55.87
2023-04-03T11:13:24.436Z,55.10
2023-04-03T11:15:59.220Z,55.29
2023-04-03T11:18:39.945Z,55.09
2023-04-03T11:21:18.707Z,54.85
2023-04-03T11:23:52.365Z,54.81
2023-04-03T11:26:29.499Z,55.47
2023-04-03T11:29:08.185Z,54.99
2023-04-03T11:32:06.714Z,55.15
2023-04-03T11:34:42.817Z,55.83
2023-04-03T11:37:24.282Z,55.66
2023-04-03T11:40:01.781Z,54.18
2023-04-03T11:42:38.988Z,54.26
2023-04-03T11:45:28.895Z,54.77
2023-04-03T11:48:16.693Z,54.63
2023-04-03T11:50:55.631Z,54.44
2023-04-03T11:53:40.324Z,54.14
2023-04-03T11:56:33.960Z,53.86
2023-04-03T11:59:28.954Z,54.44
2023-04-03T12:02:01.654Z,54.76
2023-04-03T12:04:34.037Z,54.00
2023-04-03T12:07:28.741Z,53.24
2023-04-03T12:10:04.340Z,53.86
2023-04-03T12:12:42.674Z,53.97
2023-04-03T12:15:51.053Z,53.61
2023-04-03T12:18:59.699Z,53.38
2023-04-03T12:22:10.097Z,53.24
2023-04-03T12:24:43.974Z,53.31
2023-04-03T12:27:41.394Z,53.25
2023-04-03T12:30:27.578Z,53.10
2023-04-03T12:33:26.851Z,52.68
2023-04-03T12:36:10.500Z,53.91
2023-04-03T12:39:18.200Z,51.50
2023-04-03T12:42:00.660Z,51.15
2023-04-03T12:44:46.595Z,52.27
2023-04-03T12:47:34.230Z,51.10
2023-04-03T12:50:20.706Z,51.92
2023-04-03T12:52:57.210Z,50.60
2023-04-03T12:55:29.733Z,51.55
2023-04-03T12:58:18.180Z,50.97
2023-04-03T13:01:00.772Z,50.38
2023-04-03T13:03:33.867Z,51.83
2023-04-03T13:06:06.817Z,50.83
2023-04-03T13:08:39.227Z,51.18
2023-04-03T13:11:14.611Z,52.11
2023-04-03T13:13:58.380Z,50.64
2023-04-03T13:16:31.399Z,50.80
2023-04-03T13:19:03.641Z,50.63
2023-04-03T13:21:37.226Z,51.06
2023-04-03T13:24:15.198Z,50.83
2023-04-03T13:26:48.087Z,51.36
2023-04-03T13:29:30.941Z,50.91
2023-04-03T13:32:07.284Z,50.11
2023-04-03T13:34:45.857Z,50.77
2023-04-03T13:37:29.682Z,51.20
2023-04-03T13:40:06.633Z,51.67
2023-04-03T13:42:42.352Z,51.26
2023-04-03T13:45:22.012Z,51.26
2023-04-03T13:47:56.984Z,51.31
2023-04-03T13:50:30.181Z,51.71
2023-04-03T13:53:13.433Z,51.69
2023-04-03T13:56:00.239Z,51.11
2023-04-03T13:58:35.561Z,51.16
2023-04-03T14:01:19.292Z,50.87
2023-04-03T14:03:57.603Z,51.08
2023-04-03T14:06:30.990Z,51.46
2023-04-03T14:09:03.711Z,51.08
2023-04-03T14:11:37.719Z,51.05
2023-04-03T14:14:16.983Z,51.39
2023-04-03T14:16:56.611Z,51.33
2023-04-03T14:19:33.032Z,51.21
2023-04-03T14:22:18.640Z,50.76
2023-04-03T14:24:51.815Z,51.37
2023-04-03T14:27:27.888Z,51.31
2023-04-03T14:30:01.488Z,51.52
2023-04-03T14:32:33.769Z,51.45
2023-04-03T14:35:07.841Z,51.04
2023-04-03T14:37:40.267Z,51.23
2023-04-03T14:40:18.423Z,50.98
2023-04-03T14:42:51.778Z,51.04
2023-04-03T14:45:25.245Z,51.15
2023-04-03T14:47:59.622Z,51.05
2023-04-03T14:50:31.904Z,50.78
2023-04-03T14:53:04.180Z,50.41
2023-04-03T14:55:36.479Z,50.46
2023-04-03T14:58:10.700Z,50.91
2023-04-03T15:00:42.970Z,50.40
2023-04-03T15:03:19.942Z,50.34
2023-04-03T15:05:53.212Z,50.92
2023-04-03T15:08:28.262Z,51.05
2023-04-03T15:11:02.140Z,51.09
2023-04-03T15:13:34.541Z,50.70
2023-04-03T15:16:08.326Z,50.98
2023-04-03T15:18:41.472Z,50.68
2023-04-03T15:21:13.983Z,50.18
2023-04-03T15:23:46.306Z,50.27
2023-04-03T15:26:18.598Z,50.54
2023-04-03T15:28:50.861Z,50.56
2023-04-03T15:31:23.161Z,50.71
2023-04-03T15:33:55.693Z,50.46
2023-04-03T15:36:34.003Z,50.71
2023-04-03T15:39:07.734Z,50.69
2023-04-03T15:41:40.077Z,50.48
2023-04-03T15:44:13.268Z,50.55
2023-04-03T15:46:45.956Z,50.98
2023-04-03T15:49:18.430Z,50.75
2023-04-03T15:51:50.755Z,50.95
2023-04-03T15:54:25.092Z,50.85
2023-04-03T15:56:57.374Z,50.76
2023-04-03T15:59:30.155Z,50.54
2023-04-03T16:02:06.110Z,50.78
2023-04-03T16:04:38.381Z,50.07
2023-04-03T16:07:10.729Z,50.64
2023-04-03T16:09:43.025Z,50.83
2023-04-03T16:12:15.680Z,50.72
2023-04-03T16:14:47.923Z,50.87
2023-04-03T16:17:20.249Z,50.83
2023-04-03T16:19:52.469Z,50.78
2023-04-03T16:22:26.165Z,50.75
2023-04-03T16:24:58.554Z,50.59
2023-04-03T16:27:32.059Z,50.59
2023-04-03T16:30:04.524Z,50.70
2023-04-03T16:32:38.041Z,50.45
2023-04-03T16:35:12.061Z,50.74
2023-04-03T16:37:44.427Z,50.81
2023-04-03T16:40:16.856Z,50.70
2023-04-03T16:42:49.077Z,50.81
2023-04-03T16:45:21.550Z,50.76
2023-04-03T16:47:53.871Z,50.55
2023-04-03T16:50:26.310Z,50.53
2023-04-03T16:52:58.561Z,50.95
2023-04-03T16:55:30.733Z,51.15
2023-04-03T16:58:03.094Z,51.00
2023-04-03T17:00:35.532Z,50.87
2023-04-03T17:03:07.938Z,51.06
2023-04-03T17:05:40.394Z,51.12
2023-04-03T17:08:14.963Z,50.91
2023-04-03T17:10:48.326Z,50.73
2023-04-03T17:13:21.470Z,50.80
2023-04-03T17:15:53.727Z,51.03
2023-04-03T17:18:26.639Z,50.44
2023-04-03T17:20:59.114Z,50.66
2023-04-03T17:23:31.949Z,50.92
2023-04-03T17:26:04.934Z,50.83
2023-04-03T17:28:37.121Z,50.64
2023-04-03T17:31:09.676Z,50.45
2023-04-03T17:33:41.954Z,50.69
2023-04-03T17:36:14.567Z,50.58
2023-04-03T17:38:48.502Z,50.96
2023-04-03T17:41:20.929Z,50.68
2023-04-03T17:43:56.503Z,50.79
2023-04-03T17:46:30.987Z,50.67
2023-04-03T17:49:04.792Z,50.36
2023-04-03T17:51:36.997Z,50.65
2023-04-03T17:54:09.493Z,50.91
2023-04-03T17:56:47.814Z,50.67
2023-04-03T17:59:20.787Z,51.19
2023-04-03T18:01:53.471Z,50.87
2023-04-03T18:04:25.816Z,51.01
2023-04-03T18:06:58.580Z,50.94
2023-04-03T18:09:35.125Z,50.95
2023-04-03T18:12:09.845Z,51.04
2023-04-03T18:14:43.009Z,51.02
2023-04-03T18:17:15.574Z,51.22
2023-04-03T18:19:48.464Z,51.31
2023-04-03T18:22:23.928Z,51.01
2023-04-03T18:24:58.040Z,51.42
2023-04-03T18:27:30.934Z,51.19
2023-04-03T18:30:08.680Z,51.16
2023-04-03T18:32:41.337Z,51.34
2023-04-03T18:35:15.044Z,51.51
2023-04-03T18:37:47.306Z,51.64
2023-04-03T18:40:19.911Z,51.49
2023-04-03T18:42:52.307Z,51.30
2023-04-03T18:45:26.919Z,51.30
2023-04-03T18:47:59.777Z,51.37
2023-04-03T18:50:32.915Z,51.37
2023-04-03T18:53:05.254Z,51.26
2023-04-03T18:55:37.499Z,51.48
2023-04-03T18:58:09.778Z,51.22
2023-04-03T19:00:43.484Z,51.13
2023-04-03T19:03:17.072Z,51.18
2023-04-03T19:05:49.789Z,51.25
2023-04-03T19:08:22.395Z,51.03
2023-04-03T19:10:54.725Z,51.20
2023-04-03T19:13:28.240Z,51.20
2023-04-03T19:16:01.554Z,51.28
2023-04-03T19:18:33.870Z,50.97
2023-04-03T19:21:06.821Z,51.35
2023-04-03T19:23:41.458Z,51.33
2023-04-03T19:26:14.682Z,51.31
2023-04-03T19:28:50.706Z,51.39
2023-04-03T19:31:24.454Z,51.12
2023-04-03T19:33:57.354Z,51.20
2023-04-03T19:36:29.640Z,51.20
2023-04-03T19:39:01.879Z,51.11
2023-04-03T19:41:36.903Z,51.23
2023-04-03T19:44:08.386Z,51.36
2023-04-03T19:46:40.824Z,51.24
2023-04-03T19:49:24.207Z,51.28
2023-04-03T19:51:56.715Z,51.27
2023-04-03T19:54:28.957Z,51.38
2023-04-03T19:57:02.040Z,51.35
2023-04-03T19:59:34.297Z,51.33
2023-04-03T20:02:06.798Z,51.16
2023-04-03T20:04:39.514Z,51.35
2023-04-03T20:07:12.793Z,50.99
2023-04-03T20:09:45.166Z,50.98
2023-04-03T20:12:17.548Z,51.15
2023-04-03T20:14:49.816Z,50.99
2023-04-03T20:17:22.087Z,51.11
2023-04-03T20:19:54.301Z,51.10
2023-04-03T20:22:26.610Z,51.02
2023-04-03T20:25:06.079Z,51.17
2023-04-03T20:27:39.723Z,51.17
2023-04-03T20:30:15.055Z,51.15
2023-04-03T20:32:48.603Z,51.14
2023-04-03T20:35:22.298Z,51.25
2023-04-03T20:37:54.708Z,51.21
2023-04-03T20:40:27.559Z,51.30
2023-04-03T20:42:59.904Z,51.54
2023-04-03T20:45:32.714Z,51.28
2023-04-03T20:48:06.010Z,51.41
2023-04-03T20:50:38.660Z,51.37
2023-04-03T20:53:11.085Z,51.48
2023-04-03T20:55:43.353Z,51.42
2023-04-03T20:58:15.562Z,51.55
2023-04-03T21:00:47.816Z,51.51
2023-04-03T21:03:20.421Z,51.66
2023-04-03T21:06:00.489Z,51.63
2023-04-03T21:09:07.963Z,51.59
2023-04-03T21:12:15.425Z,51.61
2023-04-03T21:15:22.305Z,51.90
2023-04-03T21:18:19.880Z,51.87
2023-04-03T21:20:52.131Z,51.76
2023-04-03T21:23:24.850Z,51.79
2023-04-03T21:25:57.574Z,51.96
2023-04-03T21:28:29.826Z,51.86
2023-04-03T21:31:02.158Z,51.79
2023-04-03T21:33:34.485Z,51.92
2023-04-03T21:36:07.910Z,51.97
2023-04-03T21:38:40.800Z,51.94
2023-04-03T21:41:13.050Z,52.01
2023-04-03T21:43:48.348Z,52.17
2023-04-03T21:46:20.770Z,52.01
2023-04-03T21:48:53.038Z,52.02
2023-04-03T21:51:25.400Z,52.24
2023-04-03T21:53:58.183Z,52.33
2023-04-03T21:56:31.602Z,52.41
2023-04-03T21:59:05.128Z,52.23
2023-04-03T22:01:37.590Z,52.20
2023-04-03T22:04:09.918Z,52.24
2023-04-03T22:06:42.257Z,52.31
2023-04-03T22:09:14.769Z,52.50
2023-04-03T22:11:49.134Z,52.15
2023-04-03T22:14:21.379Z,52.43
2023-04-03T22:16:54.119Z,52.41
2023-04-03T22:19:26.444Z,52.50
2023-04-03T22:21:58.640Z,52.41
2023-04-03T22:24:31.206Z,52.56
2023-04-03T22:27:03.418Z,52.80
2023-04-03T22:29:35.607Z,52.72
2023-04-03T22:32:08.339Z,52.44
2023-04-03T22:34:41.276Z,52.71
2023-04-03T22:37:13.631Z,52.72
2023-04-03T22:39:45.913Z,52.74
2023-04-03T22:42:18.234Z,52.73
2023-04-03T22:44:50.490Z,52.59
2023-04-03T22:47:23.011Z,52.77
2023-04-03T22:49:55.180Z,52.84
2023-04-03T22:52:27.398Z,53.16
2023-04-03T22:55:06.252Z,53.51
2023-04-03T22:57:48.842Z,53.27
2023-04-03T23:00:21.921Z,53.25
2023-04-03T23:02:54.224Z,53.26
2023-04-03T23:05:26.785Z,53.38
2023-04-03T23:07:59.096Z,53.39
2023-04-03T23:10:31.516Z,53.42
2023-04-03T23:13:03.786Z,53.36
2023-04-03T23:15:36.053Z,53.31
2023-04-03T23:18:08.575Z,53.48
2023-04-03T23:20:41.103Z,53.58
2023-04-03T23:23:13.622Z,53.44
2023-04-03T23:25:45.645Z,53.47
2023-04-03T23:28:18.160Z,53.52
2023-04-03T23:30:51.184Z,53.43
2023-04-03T23:33:23.360Z,53.77
2023-04-03T23:35:55.726Z,53.60
2023-04-03T23:38:28.441Z,53.69
2023-04-03T23:41:00.776Z,53.72
2023-04-03T23:43:33.195Z,53.62
2023-04-03T23:46:05.469Z,53.83
2023-04-03T23:48:38.062Z,53.67
2023-04-03T23:51:10.289Z,53.69
2023-04-03T23:53:42.528Z,53.63
2023-04-03T23:56:14.728Z,53.66
2023-04-03T23:58:46.885Z,53.41
